Time;durP1;ratioP1;P1;durP2;ratioP2;P2;SDS_P1;SDS_P2;PMS_P1;PMS_P2;Temp;Humidity;BMP_temperature;BMP_pressure;BME280_temperature;BME280_humidity;BME280_pressure;Samples;Min_cycle;Max_cycle;Signal;HPM_P1;HPM_P2
2022/12/04 00:01:25;;;;;;;29.50;14.25;;;;;;;5.00;100.00;95967.38;5067394;28;20091;-45
2022/12/04 00:03:54;;;;;;;35.22;16.45;;;;;;;5.10;100.00;95970.09;5066022;28;20080;-44
2022/12/04 00:06:22;;;;;;;38.08;18.90;;;;;;;5.06;100.00;95966.91;5067448;28;20476;-44
2022/12/04 00:08:51;;;;;;;37.38;18.88;;;;;;;4.86;100.00;95965.88;5068828;28;20083;-42
2022/12/04 00:11:21;;;;;;;36.03;17.15;;;;;;;5.21;100.00;95954.38;5065464;28;20493;-48
2022/12/04 00:13:50;;;;;;;37.08;18.23;;;;;;;5.06;100.00;95952.97;5066139;28;20091;-44
2022/12/04 00:16:21;;;;;;;34.42;15.70;;;;;;;5.04;100.00;95952.28;5065524;28;20076;-46
2022/12/04 00:18:51;;;;;;;37.47;17.10;;;;;;;4.92;100.00;95957.56;5065796;28;20090;-44
2022/12/04 00:21:20;;;;;;;39.72;18.23;;;;;;;5.21;100.00;95957.81;5062603;28;20068;-44
2022/12/04 00:23:48;;;;;;;43.67;19.83;;;;;;;5.22;100.00;95954.25;5066173;28;20132;-45
2022/12/04 00:26:18;;;;;;;42.58;19.17;;;;;;;4.93;100.00;95961.00;5067982;28;20071;-50
2022/12/04 00:28:47;;;;;;;43.20;18.75;;;;;;;5.06;100.00;95966.03;5067381;28;20064;-45
2022/12/04 00:31:17;;;;;;;44.70;19.17;;;;;;;5.10;100.00;95960.47;5066072;28;20080;-44
2022/12/04 00:33:46;;;;;;;43.92;18.00;;;;;;;5.29;100.00;95948.53;5066800;28;20076;-44
2022/12/04 00:36:18;;;;;;;38.22;19.70;;;;;;;5.47;100.00;95966.16;5066673;28;20080;-45
2022/12/04 00:38:46;;;;;;;49.78;20.05;;;;;;;5.44;100.00;95952.50;5066496;28;20405;-46
2022/12/04 00:41:16;;;;;;;50.47;18.75;;;;;;;5.55;100.00;95951.63;5064099;28;20534;-44
2022/12/04 00:43:45;;;;;;;45.72;19.55;;;;;;;5.83;100.00;95937.91;5067044;28;20083;-44
2022/12/04 00:46:14;;;;;;;44.35;20.50;;;;;;;5.52;100.00;95950.09;5066715;28;20072;-42
2022/12/04 00:48:43;;;;;;;35.75;18.98;;;;;;;5.87;100.00;95947.16;5065315;28;20063;-47
2022/12/04 00:51:13;;;;;;;52.45;18.75;;;;;;;5.54;100.00;95948.19;5064096;28;20063;-44
2022/12/04 00:53:43;;;;;;;45.97;20.02;;;;;;;5.25;100.00;95947.94;5063014;28;20071;-44
2022/12/04 00:56:14;;;;;;;28.40;14.52;;;;;;;5.13;100.00;95962.84;5065249;28;20056;-42
2022/12/04 00:58:42;;;;;;;35.92;14.80;;;;;;;5.16;100.00;95961.75;5063157;28;20079;-45
2022/12/04 01:01:12;;;;;;;36.65;17.20;;;;;;;5.63;100.00;95965.72;5064846;28;20083;-48
2022/12/04 01:03:41;;;;;;;37.75;17.95;;;;;;;5.54;100.00;95963.03;5064822;28;20103;-44
2022/12/04 01:06:18;;;;;;;45.58;20.00;;;;;;;5.36;100.00;95960.13;5067059;28;20097;-46
2022/12/04 01:08:48;;;;;;;30.05;15.63;;;;;;;5.39;100.00;95958.09;5064587;28;20068;-48
2022/12/04 01:11:16;;;;;;;45.80;19.08;;;;;;;5.35;100.00;95953.25;5062763;28;20125;-43
2022/12/04 01:13:45;;;;;;;33.40;16.52;;;;;;;5.69;100.00;95957.38;5062922;28;20064;-45
2022/12/04 01:16:17;;;;;;;42.00;18.55;;;;;;;6.28;100.00;95963.00;5065509;28;20079;-49
2022/12/04 01:18:46;;;;;;;41.40;18.42;;;;;;;5.98;100.00;95959.38;5063540;28;20079;-47
2022/12/04 01:21:15;;;;;;;35.50;18.13;;;;;;;6.36;100.00;95957.91;5067336;28;20083;-46
2022/12/04 01:23:43;;;;;;;40.67;18.42;;;;;;;5.91;100.00;95961.63;5065990;28;20075;-43
2022/12/04 01:26:13;;;;;;;35.72;17.83;;;;;;;5.59;100.00;95966.09;5061331;28;20068;-45
2022/12/04 01:28:42;;;;;;;31.57;17.80;;;;;;;5.88;100.00;95959.31;5066249;28;20060;-45
2022/12/04 01:31:12;;;;;;;34.20;16.75;;;;;;;5.83;100.00;95955.41;5064451;28;20521;-44
2022/12/04 01:33:41;;;;;;;;;;;;;;;5.53;100.00;95961.38;5066233;28;20063;-51
2022/12/04 01:36:12;;;;;;;40.35;17.05;;;;;;;5.54;100.00;95963.03;5063119;28;20295;-49
2022/12/04 01:38:41;;;;;;;36.35;16.85;;;;;;;5.54;100.00;95957.78;5064860;28;20482;-44
2022/12/04 01:41:17;;;;;;;31.00;16.80;;;;;;;5.66;100.00;95956.81;5064737;28;20080;-48
2022/12/04 01:44:05;;;;;;;35.17;16.67;;;;;;;5.33;100.00;95970.84;5064614;28;20545;-47
2022/12/04 01:46:34;;;;;;;34.10;16.45;;;;;;;5.88;100.00;95951.47;5065266;28;20072;-44
2022/12/04 01:49:03;;;;;;;28.95;15.95;;;;;;;5.90;100.00;95954.75;5066403;28;20064;-48
2022/12/04 01:51:34;;;;;;;36.28;17.33;;;;;;;6.11;100.00;95946.91;5065926;28;20059;-51
2022/12/04 01:54:05;;;;;;;37.53;16.48;;;;;;;5.51;100.00;95952.84;5064313;28;20088;-47
2022/12/04 01:56:39;;;;;;;32.35;15.13;;;;;;;5.75;100.00;95963.91;5068294;28;20068;-49
2022/12/04 01:59:09;;;;;;;29.52;16.17;;;;;;;6.01;100.00;95953.88;5063294;28;20076;-48
2022/12/04 02:01:42;;;;;;;32.63;16.58;;;;;;;6.56;100.00;95948.34;5068907;28;20079;-43
2022/12/04 02:04:11;;;;;;;30.38;16.42;;;;;;;6.00;100.00;95948.78;5068368;28;20079;-42
2022/12/04 02:06:39;;;;;;;31.40;16.23;;;;;;;6.07;100.00;95944.69;5067343;28;20460;-48
2022/12/04 02:09:07;;;;;;;37.28;17.23;;;;;;;5.89;100.00;95933.97;5067836;28;20076;-42
2022/12/04 02:11:39;;;;;;;31.45;16.25;;;;;;;6.24;100.00;95928.38;5066659;28;20083;-44
2022/12/04 02:14:11;;;;;;;32.92;16.73;;;;;;;6.60;100.00;95916.50;5064543;28;20072;-47
2022/12/04 02:16:45;;;;;;;31.15;16.70;;;;;;;6.86;100.00;95906.38;5067604;28;20087;-49
2022/12/04 02:19:42;;;;;;;31.55;15.70;;;;;;;6.12;100.00;95914.53;5065870;28;20060;-47
2022/12/04 02:22:18;;;;;;;34.97;15.85;;;;;;;6.24;100.00;95912.69;5067048;28;20065;-41
2022/12/04 02:24:53;;;;;;;30.33;16.27;;;;;;;5.72;100.00;95906.59;5064967;28;20060;-49
2022/12/04 02:27:33;;;;;;;27.88;13.90;;;;;;;5.96;100.00;95908.16;5064890;28;20068;-41
2022/12/04 02:30:06;;;;;;;31.25;15.95;;;;;;;6.22;100.00;95911.97;5067013;28;20079;-49
2022/12/04 02:32:39;;;;;;;29.80;15.65;;;;;;;5.95;100.00;95912.53;5066110;28;20590;-49
2022/12/04 02:35:12;;;;;;;29.70;15.32;;;;;;;6.02;100.00;95916.31;5065566;28;20076;-43
2022/12/04 02:37:44;;;;;;;27.52;15.38;;;;;;;6.52;100.00;95910.28;5066842;28;20087;-45
2022/12/04 02:40:19;;;;;;;33.25;16.60;;;;;;;6.18;100.00;95910.59;5071203;28;20083;-45
2022/12/04 02:42:50;;;;;;;32.70;15.75;;;;;;;6.57;100.00;95902.84;5071689;28;20084;-45
2022/12/04 02:45:23;;;;;;;29.70;16.15;;;;;;;7.07;100.00;95887.09;5070951;28;20084;-43
2022/12/04 02:47:52;;;;;;;28.13;15.48;;;;;;;6.53;100.00;95885.75;5070949;28;20482;-47
2022/12/04 02:50:22;;;;;;;22.38;12.93;;;;;;;6.05;100.00;95884.63;5071021;28;20076;-44
2022/12/04 02:52:51;;;;;;;28.50;14.98;;;;;;;6.44;100.00;95889.19;5071682;28;20087;-47
2022/12/04 02:55:24;;;;;;;31.13;16.35;;;;;;;6.31;100.00;95885.00;5068284;28;20088;-48
2022/12/04 02:57:56;;;;;;;27.90;15.00;;;;;;;6.28;100.00;95872.19;5071161;28;20099;-45
2022/12/04 03:00:26;;;;;;;28.25;15.70;;;;;;;6.19;100.00;95878.19;5071634;28;20084;-47
2022/12/04 03:02:57;;;;;;;33.38;16.15;;;;;;;6.06;100.00;95875.81;5071569;28;20095;-47
2022/12/04 03:05:29;;;;;;;30.25;16.25;;;;;;;6.23;100.00;95874.38;5071089;28;20079;-41
2022/12/04 03:07:59;;;;;;;27.30;14.80;;;;;;;6.49;100.00;95868.66;5069876;28;20096;-45
2022/12/04 03:10:30;;;;;;;29.65;15.63;;;;;;;6.14;100.00;95873.38;5071369;28;20091;-42
2022/12/04 03:13:03;;;;;;;28.25;15.05;;;;;;;6.09;100.00;95880.81;5071513;28;20095;-44
2022/12/04 03:15:35;;;;;;;32.60;16.90;;;;;;;5.96;100.00;95869.72;5072218;28;20041;-43
2022/12/04 03:18:08;;;;;;;30.77;16.60;;;;;;;6.36;100.00;95874.13;5071565;28;20860;-46
2022/12/04 03:20:37;;;;;;;35.15;16.75;;;;;;;6.18;100.00;95869.53;5071508;28;20064;-47
2022/12/04 03:23:10;;;;;;;27.60;15.45;;;;;;;5.98;100.00;95872.19;5071391;28;20080;-48
2022/12/04 03:25:43;;;;;;;33.75;16.95;;;;;;;6.14;100.00;95875.97;5067441;28;20147;-45
2022/12/04 03:28:17;;;;;;;31.60;14.88;;;;;;;6.16;100.00;95878.47;5070231;28;20080;-46
2022/12/04 03:30:49;;;;;;;34.53;17.23;;;;;;;6.02;100.00;95881.44;5070641;28;20076;-44
2022/12/04 03:33:20;;;;;;;30.38;15.93;;;;;;;6.17;100.00;95883.56;5070625;28;20076;-44
2022/12/04 03:35:52;;;;;;;33.28;17.35;;;;;;;6.05;100.00;95884.63;5070833;28;20087;-46
2022/12/04 03:38:25;;;;;;;32.22;16.90;;;;;;;6.27;100.00;95869.69;5068921;28;20041;-42
2022/12/04 03:40:57;;;;;;;28.88;14.90;;;;;;;6.40;100.00;95873.75;5069739;28;20653;-46
2022/12/04 03:43:28;;;;;;;29.38;15.27;;;;;;;6.86;100.00;95876.72;5071804;28;20460;-43
2022/12/04 03:45:59;;;;;;;34.03;16.30;;;;;;;6.70;100.00;95876.41;5071203;28;20469;-51
2022/12/04 03:48:31;;;;;;;33.15;18.08;;;;;;;6.60;100.00;95874.59;5066700;28;20084;-42
2022/12/04 03:51:03;;;;;;;33.55;16.77;;;;;;;6.36;100.00;95880.19;5065965;28;20456;-44
2022/12/04 03:53:38;;;;;;;27.08;15.38;;;;;;;6.88;100.00;95885.25;5066143;28;20106;-43
2022/12/04 03:56:10;;;;;;;38.30;17.20;;;;;;;6.76;100.00;95881.13;5069944;28;20080;-48
2022/12/04 03:58:41;;;;;;;31.80;15.77;;;;;;;6.49;100.00;95874.72;5068161;28;20076;-44
2022/12/04 04:01:12;;;;;;;40.00;17.38;;;;;;;6.86;100.00;95874.09;5070644;28;20084;-46
2022/12/04 04:03:43;;;;;;;33.17;16.75;;;;;;;7.03;100.00;95857.72;5070606;28;20079;-42
2022/12/04 04:06:14;;;;;;;39.88;18.27;;;;;;;7.10;100.00;95855.38;5069602;28;20072;-45
2022/12/04 04:08:45;;;;;;;37.15;17.25;;;;;;;7.23;100.00;95858.53;5068296;28;20076;-41
2022/12/04 04:11:18;;;;;;;38.47;17.70;;;;;;;7.16;100.00;95852.19;5070170;28;20475;-44
2022/12/04 04:25:03;;;;;;;30.17;16.60;;;;;;;7.60;100.00;95834.16;5071211;28;20084;-47
2022/12/04 04:27:32;;;;;;;31.98;17.27;;;;;;;7.23;100.00;95844.59;5069825;28;20457;-41
2022/12/04 04:30:00;;;;;;;34.67;16.85;;;;;;;7.44;100.00;95840.03;5060804;28;20087;-42
2022/12/04 04:32:34;;;;;;;30.60;16.88;;;;;;;6.72;100.00;95850.94;5063550;28;20080;-47
2022/12/04 04:35:09;;;;;;;36.40;16.80;;;;;;;7.15;100.00;95840.03;5066356;28;20087;-47
2022/12/04 04:37:44;;;;;;;33.63;17.35;;;;;;;6.90;100.00;95847.47;5069142;28;20084;-45
2022/12/04 04:40:16;;;;;;;31.50;16.30;;;;;;;6.99;100.00;95843.22;5067882;28;20080;-41
2022/12/04 04:42:48;;;;;;;28.42;16.02;;;;;;;6.69;100.00;95841.53;5061736;28;20099;-45
2022/12/04 04:45:20;;;;;;;31.83;16.65;;;;;;;6.90;100.00;95838.78;5065537;28;20080;-44
2022/12/04 04:47:52;;;;;;;31.27;15.98;;;;;;;7.19;100.00;95833.56;5069109;28;20087;-41
2022/12/04 04:50:21;;;;;;;37.60;16.95;;;;;;;7.07;100.00;95853.84;5065639;28;20479;-44
2022/12/04 04:52:51;;;;;;;36.38;17.65;;;;;;;6.76;100.00;95857.53;5069870;28;20088;-46
2022/12/04 04:55:20;;;;;;;39.25;16.65;;;;;;;6.88;100.00;95838.09;5064417;28;20091;-49
2022/12/04 04:57:48;;;;;;;37.50;18.05;;;;;;;7.05;100.00;95842.66;5061842;28;20084;-48
2022/12/04 05:00:20;;;;;;;31.50;16.80;;;;;;;6.60;100.00;95845.78;5068761;28;20068;-54
2022/12/04 05:02:50;;;;;;;34.55;16.90;;;;;;;6.93;100.00;95851.63;5065917;28;20076;-48
2022/12/04 05:05:18;;;;;;;32.13;17.87;;;;;;;6.92;100.00;95847.38;5059312;28;20087;-42
2022/12/04 05:07:46;;;;;;;33.60;16.80;;;;;;;7.16;100.00;95838.22;5061384;28;20088;-49
2022/12/04 05:10:15;;;;;;;33.55;16.35;;;;;;;6.68;100.00;95842.50;5058584;28;21465;-47
2022/12/04 05:12:43;;;;;;;30.23;16.88;;;;;;;7.10;100.00;95845.69;5060079;28;20067;-48
2022/12/04 05:15:11;;;;;;;33.15;16.65;;;;;;;6.79;100.00;95858.09;5061077;28;20080;-45
2022/12/04 05:17:40;;;;;;;31.90;17.17;;;;;;;6.60;100.00;95853.63;5057042;28;20084;-47
2022/12/04 05:20:10;;;;;;;31.55;16.98;;;;;;;6.84;100.00;95855.06;5062116;28;20064;-51
2022/12/04 05:22:38;;;;;;;;;;;;;;;6.92;100.00;95852.59;5058391;28;20055;-48
2022/12/04 05:25:07;;;;;;;31.60;16.15;;;;;;;6.60;100.00;95848.41;5059158;28;19972;-42
2022/12/04 05:27:36;;;;;;;33.53;16.83;;;;;;;7.27;100.00;95836.31;5061428;28;20087;-50
2022/12/04 05:30:05;;;;;;;36.13;16.58;;;;;;;7.20;100.00;95842.25;5061430;28;20086;-48
2022/12/04 05:32:34;;;;;;;35.55;16.48;;;;;;;7.27;100.00;95848.59;5061233;28;20543;-47
2022/12/04 05:35:02;;;;;;;34.50;17.08;;;;;;;6.64;100.00;95849.81;5061725;28;20088;-49
2022/12/04 05:37:40;;;;;;;31.73;15.57;;;;;;;6.81;100.00;95847.47;5060754;28;20092;-42
2022/12/04 05:40:10;;;;;;;32.08;16.77;;;;;;;7.28;100.00;95837.97;5059588;28;20084;-50
2022/12/04 05:42:38;;;;;;;31.27;15.95;;;;;;;7.04;100.00;95837.56;5060159;28;20087;-41
2022/12/04 05:45:07;;;;;;;31.73;15.75;;;;;;;7.35;100.00;95839.06;5068781;28;20080;-44
2022/12/04 05:47:38;;;;;;;31.35;16.10;;;;;;;6.53;100.00;95855.16;5063778;28;20080;-43
2022/12/04 05:50:09;;;;;;;30.45;16.60;;;;;;;6.91;100.00;95845.69;5063035;28;20084;-44
2022/12/04 05:52:39;;;;;;;33.45;16.23;;;;;;;7.10;100.00;95844.88;5065031;28;20072;-42
2022/12/04 05:55:08;;;;;;;29.63;15.87;;;;;;;6.92;100.00;95846.50;5061904;28;20464;-49
2022/12/04 05:57:36;;;;;;;37.85;16.30;;;;;;;7.26;100.00;95845.16;5057791;28;20084;-50
2022/12/04 06:00:05;;;;;;;30.13;16.25;;;;;;;6.85;100.00;95851.50;5061854;28;20080;-49
2022/12/04 06:02:34;;;;;;;32.05;15.88;;;;;;;7.16;100.00;95844.34;5057754;28;20083;-49
2022/12/04 06:05:02;;;;;;;35.90;16.85;;;;;;;7.14;100.00;95843.63;5061143;28;20099;-45
2022/12/04 06:07:31;;;;;;;32.38;16.63;;;;;;;7.07;100.00;95847.78;5056066;28;20091;-52
2022/12/04 06:10:00;;;;;;;27.52;15.30;;;;;;;7.13;100.00;95842.81;5057516;28;20084;-45
2022/12/04 06:12:30;;;;;;;30.63;15.43;;;;;;;7.11;100.00;95849.97;5063230;28;20072;-42
2022/12/04 06:14:58;;;;;;;33.20;17.00;;;;;;;7.02;100.00;95852.59;5059913;28;20091;-46
2022/12/04 06:17:26;;;;;;;37.53;16.85;;;;;;;7.27;100.00;95854.66;5061990;28;20178;-45
2022/12/04 06:19:55;;;;;;;35.28;17.20;;;;;;;6.70;100.00;95856.28;5063592;28;20481;-45
2022/12/04 06:22:23;;;;;;;37.00;17.25;;;;;;;7.27;100.00;95852.03;5061674;28;20091;-43
2022/12/04 06:24:52;;;;;;;38.83;18.13;;;;;;;7.07;100.00;95840.72;5059463;28;20087;-46
2022/12/04 06:27:21;;;;;;;35.13;17.08;;;;;;;7.33;100.00;95841.00;5062767;28;20087;-44
2022/12/04 06:29:55;;;;;;;31.83;16.50;;;;;;;7.17;100.00;95845.97;5058377;28;20465;-44
2022/12/04 06:32:24;;;;;;;34.40;18.15;;;;;;;7.03;100.00;95849.84;5058141;28;20073;-46
2022/12/04 06:34:53;;;;;;;31.92;16.63;;;;;;;6.68;100.00;95855.59;5058907;28;20090;-43
2022/12/04 06:37:23;;;;;;;29.13;16.35;;;;;;;6.62;100.00;95849.09;5057886;28;20092;-47
2022/12/04 06:39:51;;;;;;;30.45;16.67;;;;;;;6.68;100.00;95855.59;5065877;28;20582;-50
2022/12/04 06:42:21;;;;;;;36.90;17.02;;;;;;;6.88;100.00;95845.97;5065860;28;20072;-44
2022/12/04 06:44:49;;;;;;;34.75;18.23;;;;;;;6.59;100.00;95831.03;5065663;28;20672;-49
2022/12/04 06:47:18;;;;;;;40.22;18.25;;;;;;;7.01;100.00;95832.59;5063758;28;20084;-47
2022/12/04 06:49:49;;;;;;;38.00;17.98;;;;;;;7.25;100.00;95832.16;5063584;28;20076;-44
2022/12/04 06:52:17;;;;;;;37.80;17.42;;;;;;;7.47;100.00;95825.81;5063479;28;20083;-44
2022/12/04 06:54:46;;;;;;;41.08;18.08;;;;;;;7.35;100.00;95833.81;5065108;28;20075;-47
2022/12/04 06:57:14;;;;;;;38.20;17.88;;;;;;;7.24;100.00;95833.97;5064063;28;20084;-42
2022/12/04 06:59:44;;;;;;;33.10;16.73;;;;;;;7.44;100.00;95833.94;5064874;28;20080;-43
2022/12/04 07:02:12;;;;;;;38.38;17.52;;;;;;;7.23;100.00;95837.56;5060053;28;20539;-42
2022/12/04 07:04:40;;;;;;;37.22;16.90;;;;;;;7.37;100.00;95833.69;5057525;28;20076;-40
2022/12/04 07:07:09;;;;;;;35.72;17.45;;;;;;;6.98;100.00;95838.94;5061562;28;20497;-42
2022/12/04 07:09:37;;;;;;;35.42;18.42;;;;;;;6.90;100.00;95842.25;5062806;28;20179;-42
2022/12/04 07:12:06;;;;;;;36.30;17.25;;;;;;;7.51;100.00;95848.16;5066850;28;20072;-41
2022/12/04 07:14:35;;;;;;;38.13;18.08;;;;;;;7.36;100.00;95861.72;5068251;28;20088;-40
2022/12/04 07:17:04;;;;;;;40.70;17.83;;;;;;;6.36;100.00;95877.56;5065176;28;20084;-41
2022/12/04 07:19:33;;;;;;;40.40;17.20;;;;;;;6.78;100.00;95866.06;5063673;28;20080;-40
2022/12/04 07:22:01;;;;;;;40.08;17.05;;;;;;;7.01;100.00;95864.03;5066007;28;20107;-39
2022/12/04 07:24:29;;;;;;;56.22;21.27;;;;;;;6.64;100.00;95868.16;5064440;28;20080;-40
2022/12/04 07:26:58;;;;;;;40.45;18.83;;;;;;;6.87;100.00;95853.00;5068120;28;20091;-44
2022/12/04 07:29:26;;;;;;;48.10;18.73;;;;;;;6.92;100.00;95876.19;5068743;28;20718;-46
2022/12/04 07:31:54;;;;;;;35.03;16.50;;;;;;;7.23;100.00;95857.72;5065729;28;20048;-42
2022/12/04 07:34:24;;;;;;;54.25;19.48;;;;;;;7.63;100.00;95841.75;5068094;28;20080;-47
2022/12/04 07:36:52;;;;;;;39.80;17.50;;;;;;;7.34;100.00;95834.78;5065106;28;20526;-46
2022/12/04 07:39:21;;;;;;;63.95;18.63;;;;;;;7.14;100.00;95820.84;5067968;28;20418;-45
2022/12/04 07:41:49;;;;;;;42.95;18.20;;;;;;;7.47;100.00;95815.31;5069718;28;20095;-46
2022/12/04 07:44:17;;;;;;;53.95;20.25;;;;;;;7.68;100.00;95813.31;5069106;28;20159;-43
2022/12/04 07:46:45;;;;;;;35.92;17.05;;;;;;;7.74;100.00;95830.28;5064013;28;20103;-43
2022/12/04 07:49:14;;;;;;;38.65;19.38;;;;;;;7.84;100.00;95846.81;5063424;28;20091;-43
2022/12/04 07:51:43;;;;;;;39.30;18.73;;;;;;;7.21;100.00;95851.78;5061297;28;20080;-43
2022/12/04 07:54:12;;;;;;;40.00;18.80;;;;;;;7.02;100.00;95857.81;5068842;28;20060;-44
2022/12/04 07:56:40;;;;;;;35.55;17.73;;;;;;;6.99;100.00;95866.81;5069390;28;20457;-42
2022/12/04 07:59:08;;;;;;;43.92;19.70;;;;;;;6.98;100.00;95870.38;5061513;28;20083;-43
2022/12/04 08:01:37;;;;;;;37.65;17.35;;;;;;;7.30;100.00;95853.56;5062557;28;20067;-42
2022/12/04 08:04:05;;;;;;;50.85;21.13;;;;;;;7.32;100.00;95852.44;5065885;28;20099;-44
2022/12/04 08:06:34;;;;;;;38.50;17.52;;;;;;;7.30;100.00;95846.53;5065866;28;20090;-50
2022/12/04 08:09:04;;;;;;;32.80;17.60;;;;;;;7.57;100.00;95835.31;5062024;28;20080;-40
2022/12/04 08:11:37;;;;;;;35.15;17.45;;;;;;;7.79;100.00;95842.00;5063875;28;20086;-40
2022/12/04 08:14:07;;;;;;;41.50;18.60;;;;;;;7.72;100.00;95853.22;5064130;28;20084;-41
2022/12/04 08:16:35;;;;;;;48.58;20.48;;;;;;;7.65;100.00;95855.59;5063161;28;20558;-43
2022/12/04 08:19:04;;;;;;;43.30;17.92;;;;;;;7.59;100.00;95858.75;5060067;28;20473;-46
2022/12/04 08:21:33;;;;;;;34.80;18.20;;;;;;;7.78;100.00;95843.00;5062699;28;20575;-40
2022/12/04 08:24:02;;;;;;;35.20;18.00;;;;;;;7.48;100.00;95843.19;5065470;28;20064;-46
2022/12/04 08:26:33;;;;;;;43.47;18.25;;;;;;;7.74;100.00;95840.78;5067395;28;20076;-41
2022/12/04 08:29:01;;;;;;;42.95;18.02;;;;;;;7.62;100.00;95837.50;5065304;28;20084;-39
2022/12/04 08:31:32;;;;;;;33.55;16.95;;;;;;;7.58;100.00;95838.75;5068217;28;20092;-42
2022/12/04 08:34:02;;;;;;;34.33;16.58;;;;;;;7.88;100.00;95836.84;5063117;28;20083;-48
2022/12/04 08:36:31;;;;;;;39.78;17.60;;;;;;;8.01;100.00;95829.50;5068744;28;20072;-46
2022/12/04 08:38:59;;;;;;;42.08;17.35;;;;;;;8.07;100.00;95844.69;5067843;28;20084;-51
2022/12/04 08:41:28;;;;;;;29.98;15.93;;;;;;;7.80;100.00;95861.19;5068790;28;20099;-42
2022/12/04 08:43:58;;;;;;;38.15;18.13;;;;;;;8.03;100.00;95845.94;5068328;28;20710;-51
2022/12/04 08:46:27;;;;;;;37.28;18.85;;;;;;;7.79;100.00;95847.25;5059393;28;20091;-46
2022/12/04 08:48:56;;;;;;;35.58;18.42;;;;;;;7.73;100.00;95847.00;5062972;28;20064;-43
2022/12/04 08:51:26;;;;;;;33.78;17.05;;;;;;;7.74;100.00;95844.25;5065986;28;20103;-44
2022/12/04 08:53:56;;;;;;;35.70;18.10;;;;;;;7.85;100.00;95864.25;5064365;28;20472;-45
2022/12/04 08:56:25;;;;;;;42.08;18.73;;;;;;;7.94;100.00;95867.78;5064290;28;20563;-41
2022/12/04 08:58:56;;;;;;;42.15;18.30;;;;;;;7.62;100.00;95866.34;5056503;28;20076;-41
2022/12/04 09:01:25;;;;;;;42.63;18.23;;;;;;;8.11;100.00;95853.91;5061137;28;20091;-41
2022/12/04 09:03:54;;;;;;;36.40;18.45;;;;;;;7.80;100.00;95854.16;5060459;28;20091;-42
2022/12/04 09:06:23;;;;;;;39.38;18.52;;;;;;;8.23;100.00;95842.25;5064050;28;20083;-41
2022/12/04 09:08:53;;;;;;;44.33;20.02;;;;;;;8.12;100.00;95849.47;5059851;28;20492;-45
2022/12/04 09:11:23;;;;;;;44.05;19.15;;;;;;;8.33;100.00;95853.56;5062449;28;20090;-40
2022/12/04 09:13:51;;;;;;;53.33;21.30;;;;;;;8.02;100.00;95879.25;5061660;28;20076;-40
2022/12/04 09:16:23;;;;;;;45.38;20.88;;;;;;;7.78;100.00;95861.34;5063254;28;20473;-44
2022/12/04 09:18:51;;;;;;;36.00;17.92;;;;;;;8.15;100.00;95867.59;5058172;28;20072;-45
2022/12/04 09:21:21;;;;;;;64.10;22.35;;;;;;;8.44;100.00;95854.38;5054586;28;20087;-42
2022/12/04 09:23:50;;;;;;;40.27;17.63;;;;;;;8.21;100.00;95856.50;5056426;28;20084;-41
2022/12/04 09:26:21;;;;;;;40.42;19.85;;;;;;;8.43;100.00;95848.28;5056300;28;20536;-41
2022/12/04 09:28:50;;;;;;;39.47;19.25;;;;;;;8.60;100.00;95840.56;5065650;28;20080;-45
2022/12/04 09:31:19;;;;;;;47.55;19.55;;;;;;;8.24;100.00;95843.09;5059193;28;20076;-43
2022/12/04 09:33:49;;;;;;;36.40;18.00;;;;;;;7.81;100.00;95836.59;5064834;28;20060;-40
2022/12/04 09:36:17;;;;;;;48.65;19.27;;;;;;;8.50;100.00;95819.63;5064278;28;20095;-42
2022/12/04 09:38:47;;;;;;;41.40;19.70;;;;;;;8.74;100.00;95819.88;5065336;28;20086;-48
2022/12/04 09:41:39;;;;;;;45.63;20.92;;;;;;;8.39;100.00;95818.00;5063249;28;20083;-44
2022/12/04 09:44:10;;;;;;;41.50;19.88;;;;;;;9.15;100.00;95808.88;5064730;28;20147;-48
2022/12/04 09:46:44;;;;;;;41.50;19.77;;;;;;;8.80;100.00;95808.75;5057728;28;20139;-50
2022/12/04 09:49:17;;;;;;;35.95;19.13;;;;;;;9.07;100.00;95800.94;5064726;28;20088;-42
2022/12/04 09:51:46;;;;;;;39.05;20.33;;;;;;;9.11;100.00;95802.28;5064830;28;20544;-45
2022/12/04 09:54:17;;;;;;;31.15;17.88;;;;;;;8.53;100.00;95814.06;5063240;28;20087;-41
2022/12/04 09:56:51;;;;;;;31.08;17.63;;;;;;;8.44;100.00;95796.56;5065689;28;20543;-40
2022/12/04 09:59:21;;;;;;;30.95;16.80;;;;;;;8.77;100.00;95790.66;5064658;28;20080;-40
2022/12/04 10:01:54;;;;;;;33.30;18.48;;;;;;;8.93;100.00;95797.03;5064483;28;20068;-42
2022/12/04 10:04:24;;;;;;;27.80;16.20;;;;;;;8.71;100.00;95793.91;5064914;28;20079;-46
2022/12/04 10:07:01;;;;;;;29.05;15.63;;;;;;;8.91;100.00;95783.22;5064202;28;20537;-47
2022/12/04 10:09:36;;;;;;;29.88;17.33;;;;;;;8.29;100.00;95804.91;5063618;28;20084;-42
2022/12/04 10:12:10;;;;;;;33.28;18.05;;;;;;;8.31;100.00;95817.88;5060349;28;20500;-43
2022/12/04 10:14:51;;;;;;;28.92;16.83;;;;;;;8.61;100.00;95822.03;5058492;28;20079;-44
2022/12/04 10:17:38;;;;;;;48.63;19.35;;;;;;;8.58;100.00;95793.44;5066585;28;20142;-45
2022/12/04 10:20:17;;;;;;;42.50;17.58;;;;;;;8.11;100.00;95800.56;5068400;28;20326;-41
2022/12/04 10:22:55;;;;;;;55.10;21.20;;;;;;;8.45;100.00;95798.22;5068611;28;20090;-48
2022/12/04 10:25:25;;;;;;;52.10;22.88;;;;;;;8.74;100.00;95795.38;5068373;28;20088;-44
2022/12/04 10:27:57;;;;;;;56.97;27.08;;;;;;;9.08;100.00;95790.25;5067985;28;20080;-43
2022/12/04 10:30:27;;;;;;;47.53;21.85;;;;;;;9.10;100.00;95782.22;5066715;28;20080;-44
2022/12/04 10:32:58;;;;;;;54.65;20.10;;;;;;;8.59;100.00;95774.03;5067098;28;20076;-41
2022/12/04 10:35:30;;;;;;;44.92;17.73;;;;;;;8.72;100.00;95769.25;5067122;28;20080;-49
2022/12/04 10:38:02;;;;;;;39.08;19.67;;;;;;;9.24;100.00;95758.00;5066572;28;20507;-41
2022/12/04 10:40:34;;;;;;;54.88;20.85;;;;;;;9.30;100.00;95764.47;5066495;28;20083;-42
2022/12/04 10:43:06;;;;;;;43.83;17.88;;;;;;;9.05;100.00;95753.78;5067353;28;20150;-42
2022/12/04 10:45:34;;;;;;;39.30;18.35;;;;;;;8.84;100.00;95740.09;5067098;28;20084;-40
2022/12/04 10:48:03;;;;;;;31.88;17.10;;;;;;;9.17;100.00;95743.81;5066885;28;20084;-45
2022/12/04 10:50:32;;;;;;;34.05;18.33;;;;;;;9.05;100.00;95743.25;5066802;28;20083;-45
2022/12/04 10:53:01;;;;;;;34.00;16.92;;;;;;;9.31;100.00;95729.28;5067046;28;20539;-45
2022/12/04 10:55:30;;;;;;;40.53;19.83;;;;;;;9.38;100.00;95720.59;5066615;28;20563;-42
2022/12/04 10:57:59;;;;;;;39.53;19.73;;;;;;;9.45;100.00;95721.63;5066800;28;20603;-46
2022/12/04 11:00:30;;;;;;;34.83;17.67;;;;;;;9.56;100.00;95712.63;5068133;28;20080;-43
2022/12/04 11:03:01;;;;;;;33.63;17.08;;;;;;;9.62;100.00;95704.13;5070675;28;20602;-41
2022/12/04 11:05:33;;;;;;;35.53;18.70;;;;;;;9.19;100.00;95720.84;5070702;28;20112;-43
2022/12/04 11:08:04;;;;;;;26.30;15.93;;;;;;;8.93;100.00;95734.75;5070870;28;20080;-48
2022/12/04 11:10:35;;;;;;;34.13;17.70;;;;;;;8.42;100.00;95753.84;5070550;28;20072;-46
2022/12/04 11:13:05;;;;;;;31.05;17.80;;;;;;;8.79;100.00;95748.44;5070710;28;20087;-40
2022/12/04 11:15:36;;;;;;;38.55;21.45;;;;;;;8.83;100.00;95746.34;5070235;28;20083;-43
2022/12/04 11:18:08;;;;;;;37.70;19.23;;;;;;;9.04;100.00;95737.13;5070376;28;20620;-46
2022/12/04 11:20:39;;;;;;;39.97;20.20;;;;;;;8.66;100.00;95740.13;5070525;28;20080;-47
2022/12/04 11:23:15;;;;;;;36.13;18.88;;;;;;;8.65;100.00;95725.31;5070806;28;20094;-42
2022/12/04 11:25:46;;;;;;;35.15;19.92;;;;;;;8.49;100.00;95718.13;5064369;28;20080;-48
2022/12/04 11:28:17;;;;;;;39.42;18.27;;;;;;;8.70;100.00;95717.81;5050152;28;20095;-46
2022/12/04 11:31:08;;;;;;;30.63;16.90;;;;;;;8.55;100.00;95709.63;5067279;28;20652;-44
2022/12/04 11:33:39;;;;;;;34.67;18.60;;;;;;;8.50;100.00;95717.97;5070567;28;20093;-46
2022/12/04 11:36:19;;;;;;;37.13;18.33;;;;;;;8.45;100.00;95724.66;5070049;28;20579;-46
2022/12/04 11:38:47;;;;;;;37.78;18.88;;;;;;;8.39;100.00;95731.31;5069842;28;20081;-47
2022/12/04 11:41:24;;;;;;;45.45;20.05;;;;;;;8.72;100.00;95729.81;5069977;28;20068;-48
2022/12/04 11:43:53;;;;;;;35.35;19.70;;;;;;;9.01;100.00;95721.66;5070873;28;20088;-44